Here is the Quick Look data you requested

The Data originates at the National Weather Service, and is made available here by the UAlbany Department of Atmospheric and Environmental Sciences

Surface Observations

PHBK 220456Z AUTO 02006KT 10SM CLR 29/22 A2993 RMK AO2 SLP136 T02890217 $=
PHHI 220458Z AUTO 04006KT 10SM FEW034 25/22 A2999 RMK AO2 RAB04E21 SLP144 P0002
 T02480219 $=
PHJR 220453Z 06007KT 10SM CLR 27/21 A2998 RMK AO2 SLP158 T02720211=
PHKO 220453Z 21006KT 10SM FEW043 29/21 A2992 RMK AO2 SLP133 T02890211=
PHLI 220453Z 05012KT 10SM FEW048 SCT075 BKN095 27/22 A2998 RMK AO2 RAE10 SLP150
 P0000 T02670217=
PHMK 220454Z AUTO 03011G21KT 10SM FEW010 BKN070 OVC080 25/23 A2999 RMK AO2
 SLP156 T02500233 TSNO=
PHNL 220453Z 04007KT 10SM FEW022 FEW032 SCT050 SCT250 25/21 A2997 RMK AO2
 SLP147 T02500206=
PHNY 220456Z AUTO 07009KT 10SM SCT024 BKN038 BKN060 24/21 A3004 RMK AO2 SLP149
 T02390211=
PHOG 220454Z 04014KT 10SM FEW030 SCT060 26/23 A2996 RMK AO2 SLP151 T02610228 $=
PHSF 220456Z AUTO 00000KT 3/8SM FG VV001 16/15 A3034 RMK AO2 VIS 3/8V1 3/8 LTG
 DSNT E SLP165 WND DATA ESTMD T01600152 $=
PHTO 220453Z 25004KT 8SM -RA BKN012 OVC018 24/23 A2998 RMK AO2 SLP152 OCNL
 LTGCTG VC W P0054 T02440233=
PMDY 220456Z AUTO 09014KT 4SM -RA BKN019 28/24 A3015 RMK AO2 RAB55 SLP208 P0001
 T02830239=